| time (UTC) | temp C | wind direction | speed KPH | gust KPH | rain 1hr cm | rain 24hr cm | rain mn cm | humidity % | barometer mb |
| 20260509043005 | 16 | 225 | 8.0 | 11.3 | 0.00 | 0.00 | 0.00 | 67 | 1027.7 |
| 20260509041505 | 16 | 225 | 8.0 | 11.3 | 0.00 | 0.00 | 0.00 | 67 | 1027.7 |
| 20260509040005 | 16 | 225 | 12.9 | 16.1 | 0.00 | 0.00 | 0.00 | 68 | 1028.1 |
| 20260509034505 | 16 | 225 | 12.9 | 16.1 | 0.00 | 0.00 | 0.00 | 68 | 1028.1 |
| 20260509033005 | 16 | 225 | 14.5 | 20.9 | 0.00 | 0.00 | 0.00 | 67 | 1028.5 |
| 20260509031505 | 16 | 225 | 14.5 | 20.9 | 0.00 | 0.00 | 0.00 | 67 | 1028.5 |
| 20260509030005 | 15 | 225 | 9.7 | 12.9 | 0.00 | 0.00 | 0.00 | 79 | 1029.0 |
| 20260509024505 | 15 | 225 | 9.7 | 12.9 | 0.00 | 0.00 | 0.00 | 79 | 1029.0 |
| 20260509023005 | 15 | 180 | 9.7 | 14.5 | 0.00 | 0.00 | 0.00 | 77 | 1029.6 |
| 20260509021504 | 15 | 180 | 9.7 | 14.5 | 0.00 | 0.00 | 0.00 | 77 | 1029.6 |
| 20260509020005 | 14 | 180 | 11.3 | 14.5 | 0.00 | 0.00 | 0.00 | 82 | 1030.1 |
| 20260509014505 | 14 | 180 | 11.3 | 14.5 | 0.00 | 0.00 | 0.00 | 82 | 1030.1 |
| 20260509013005 | 14 | 202 | 11.3 | 14.5 | 0.00 | 0.00 | 0.00 | 79 | 1030.0 |
| 20260509011505 | 14 | 202 | 11.3 | 14.5 | 0.00 | 0.00 | 0.00 | 79 | 1030.0 |
| 20260509010005 | 14 | 202 | 12.9 | 20.9 | 0.00 | 0.00 | 0.00 | 79 | 1030.1 |
| 20260509004505 | 14 | 202 | 12.9 | 20.9 | 0.00 | 0.00 | 0.00 | 79 | 1030.1 |
| 20260509003005 | 13 | 180 | 12.9 | 16.1 | 0.00 | 0.00 | 0.00 | 83 | 1030.2 |
| 20260509001504 | 13 | 180 | 12.9 | 16.1 | 0.00 | 0.00 | 0.00 | 83 | 1030.2 |
| 20260509000007 | 13 | 180 | 11.3 | 12.9 | 0.00 | 0.00 | 0.00 | 86 | 1030.2 |
| 20260508234505 | 13 | 180 | 11.3 | 12.9 | 0.00 | 0.00 | 0.00 | 86 | 1030.2 |
| 20260508233005 | 13 | 202 | 12.9 | 14.5 | 0.00 | 0.00 | 0.00 | 88 | 1030.1 |
| 20260508231505 | 13 | 202 | 12.9 | 14.5 | 0.00 | 0.00 | 0.00 | 88 | 1030.1 |
| 20260508230005 | 12 | 202 | 12.9 | 19.3 | 0.00 | 0.00 | 0.00 | 90 | 1029.7 |
| 20260508224505 | 12 | 202 | 12.9 | 19.3 | 0.00 | 0.00 | 0.00 | 90 | 1029.7 |
| 20260508223005 | 12 | 202 | 9.7 | 11.3 | 0.00 | 0.00 | 0.00 | 90 | 1029.4 |
| 20260508221505 | 12 | 202 | 9.7 | 11.3 | 0.00 | 0.00 | 0.00 | 90 | 1029.4 |
| 20260508220005 | 12 | 225 | 8.0 | 12.9 | 0.00 | 0.00 | 0.00 | 90 | 1029.2 |
| 20260508214505 | 12 | 225 | 8.0 | 12.9 | 0.00 | 0.00 | 0.00 | 90 | 1029.2 |
| 20260508213004 | 12 | 247 | 11.3 | 14.5 | 0.00 | 0.00 | 0.00 | 90 | 1029.1 |
| 20260508211505 | 12 | 247 | 11.3 | 14.5 | 0.00 | 0.00 | 0.00 | 90 | 1029.1 |
| 20260508210005 | 12 | 202 | 11.3 | 12.9 | 0.00 | 0.00 | 0.00 | 91 | 1028.8 |
| 20260508204505 | 12 | 202 | 11.3 | 12.9 | 0.00 | 0.00 | 0.00 | 91 | 1028.8 |
| 20260508203005 | 12 | 180 | 9.7 | 12.9 | 0.00 | 0.00 | 0.00 | 90 | 1028.6 |
| 20260508201505 | 12 | 180 | 9.7 | 12.9 | 0.00 | 0.00 | 0.00 | 90 | 1028.6 |
| 20260508200005 | 12 | 202 | 12.9 | 22.5 | 0.00 | 0.00 | 0.00 | 90 | 1028.6 |
| 20260508194504 | 12 | 202 | 12.9 | 22.5 | 0.00 | 0.00 | 0.00 | 90 | 1028.6 |
| 20260508193005 | 12 | 225 | 8.0 | 9.7 | 0.00 | 0.00 | 0.00 | 89 | 1028.4 |
| 20260508191505 | 12 | 225 | 8.0 | 9.7 | 0.00 | 0.00 | 0.00 | 89 | 1028.4 |
| 20260508190005 | 12 | 225 | 4.8 | 8.0 | 0.00 | 0.00 | 0.00 | 89 | 1028.3 |
| 20260508184505 | 12 | 225 | 4.8 | 8.0 | 0.00 | 0.00 | 0.00 | 89 | 1028.3 |
| 20260508183006 | 12 | 202 | 8.0 | 9.7 | 0.00 | 0.00 | 0.00 | 90 | 1028.4 |
| 20260508181505 | 12 | 202 | 8.0 | 9.7 | 0.00 | 0.00 | 0.00 | 90 | 1028.4 |
| 20260508180005 | 12 | 202 | 8.0 | 11.3 | 0.00 | 0.00 | 0.00 | 92 | 1028.6 |
| 20260508174505 | 12 | 202 | 8.0 | 11.3 | 0.00 | 0.00 | 0.00 | 92 | 1028.6 |
| 20260508173004 | 12 | 180 | 12.9 | 20.9 | 0.00 | 0.00 | 0.00 | 93 | 1028.7 |
| 20260508171504 | 12 | 180 | 12.9 | 20.9 | 0.00 | 0.00 | 0.00 | 93 | 1028.7 |
| 20260508170004 | 12 | 202 | 12.9 | 22.5 | 0.00 | 0.00 | 0.00 | 90 | 1028.9 |
| 20260508164505 | 12 | 202 | 12.9 | 22.5 | 0.00 | 0.00 | 0.00 | 90 | 1028.9 |
| 20260508163005 | 12 | 202 | 12.9 | 19.3 | 0.00 | 0.00 | 0.00 | 86 | 1028.8 |
| 20260508161505 | 12 | 202 | 12.9 | 19.3 | 0.00 | 0.00 | 0.00 | 86 | 1028.8 |
| 20260508160005 | 13 | 202 | 14.5 | 22.5 | 0.00 | 0.00 | 0.00 | 85 | 1028.7 |
| 20260508154504 | 13 | 202 | 14.5 | 22.5 | 0.00 | 0.00 | 0.00 | 85 | 1028.7 |
| 20260508153005 | 13 | 202 | 20.9 | 25.7 | 0.00 | 0.00 | 0.00 | 83 | 1028.7 |
| 20260508151505 | 13 | 202 | 20.9 | 25.7 | 0.00 | 0.00 | 0.00 | 83 | 1028.7 |
| 20260508150005 | 13 | 225 | 14.5 | 20.9 | 0.00 | 0.00 | 0.00 | 81 | 1028.7 |
| 20260508144505 | 13 | 225 | 14.5 | 20.9 | 0.00 | 0.00 | 0.00 | 81 | 1028.7 |
| 20260508143005 | 13 | 202 | 16.1 | 24.1 | 0.00 | 0.00 | 0.00 | 79 | 1028.7 |
| 20260508141504 | 13 | 202 | 16.1 | 24.1 | 0.00 | 0.00 | 0.00 | 79 | 1028.7 |
| 20260508140005 | 13 | 202 | 14.5 | 24.1 | 0.00 | 0.00 | 0.00 | 76 | 1028.8 |
| 20260508134505 | 13 | 202 | 14.5 | 24.1 | 0.00 | 0.00 | 0.00 | 76 | 1028.8 |
| 20260508133005 | 14 | 202 | 16.1 | 24.1 | 0.00 | 0.00 | 0.00 | 74 | 1029.0 |
| 20260508131505 | 14 | 202 | 16.1 | 24.1 | 0.00 | 0.00 | 0.00 | 74 | 1029.0 |
| 20260508130005 | 14 | 225 | 19.3 | 25.7 | 0.00 | 0.00 | 0.00 | 71 | 1029.0 |
| 20260508124505 | 14 | 225 | 19.3 | 25.7 | 0.00 | 0.00 | 0.00 | 71 | 1029.0 |
| 20260508123005 | 15 | 202 | 22.5 | 32.2 | 0.00 | 0.00 | 0.00 | 66 | 1029.1 |
| 20260508121505 | 15 | 202 | 22.5 | 32.2 | 0.00 | 0.00 | 0.00 | 66 | 1029.1 |
| 20260508120005 | 15 | 202 | 24.1 | 29.0 | 0.00 | 0.00 | 0.00 | 65 | 1028.9 |
| 20260508114504 | 15 | 202 | 24.1 | 29.0 | 0.00 | 0.00 | 0.00 | 65 | 1028.9 |
| 20260508113005 | 15 | 202 | 22.5 | 29.0 | 0.00 | 0.00 | 0.00 | 64 | 1028.8 |
| 20260508111505 | 15 | 202 | 22.5 | 29.0 | 0.00 | 0.00 | 0.00 | 64 | 1028.8 |
| 20260508110005 | 15 | 202 | 22.5 | 29.0 | 0.00 | 0.00 | 0.00 | 67 | 1028.8 |
| 20260508104505 | 15 | 202 | 22.5 | 29.0 | 0.00 | 0.00 | 0.00 | 67 | 1028.8 |
| 20260508103005 | 16 | 202 | 14.5 | 20.9 | 0.00 | 0.00 | 0.00 | 63 | 1028.7 |
| 20260508101504 | 16 | 202 | 14.5 | 20.9 | 0.00 | 0.00 | 0.00 | 63 | 1028.7 |
| 20260508100005 | 16 | 202 | 19.3 | 24.1 | 0.00 | 0.00 | 0.00 | 61 | 1028.3 |
| 20260508094505 | 16 | 202 | 19.3 | 24.1 | 0.00 | 0.00 | 0.00 | 61 | 1028.3 |
| 20260508093005 | 16 | 202 | 16.1 | 25.7 | 0.00 | 0.00 | 0.00 | 64 | 1028.1 |
| 20260508091505 | 16 | 202 | 16.1 | 25.7 | 0.00 | 0.00 | 0.00 | 64 | 1028.1 |
| 20260508090005 | 16 | 202 | 16.1 | 24.1 | 0.00 | 0.00 | 0.00 | 65 | 1027.8 |
| 20260508084505 | 16 | 202 | 16.1 | 24.1 | 0.00 | 0.00 | 0.00 | 65 | 1027.8 |
| 20260508083005 | 17 | 202 | 22.5 | 29.0 | 0.00 | 0.00 | 0.00 | 66 | 1027.7 |
| 20260508081505 | 17 | 202 | 22.5 | 29.0 | 0.00 | 0.00 | 0.00 | 66 | 1027.7 |
| 20260508080004 | 17 | 225 | 19.3 | 27.4 | 0.00 | 0.00 | 0.00 | 58 | 1027.3 |
| 20260508074504 | 17 | 225 | 19.3 | 27.4 | 0.00 | 0.00 | 0.00 | 58 | 1027.3 |
| 20260508073005 | 18 | 225 | 19.3 | 32.2 | 0.00 | 0.00 | 0.00 | 58 | 1027.2 |
| 20260508071505 | 18 | 225 | 19.3 | 32.2 | 0.00 | 0.00 | 0.00 | 58 | 1027.2 |
| 20260508070005 | 18 | 225 | 22.5 | 33.8 | 0.00 | 0.00 | 0.00 | 60 | 1027.2 |
| 20260508064505 | 18 | 225 | 22.5 | 33.8 | 0.00 | 0.00 | 0.00 | 60 | 1027.2 |
| 20260508063005 | 18 | 247 | 22.5 | 32.2 | 0.00 | 0.00 | 0.00 | 59 | 1027.0 |
| 20260508061505 | 18 | 247 | 22.5 | 32.2 | 0.00 | 0.00 | 0.00 | 59 | 1027.0 |
| 20260508060005 | 18 | 202 | 20.9 | 27.4 | 0.00 | 0.00 | 0.00 | 64 | 1027.2 |
| 20260508054505 | 18 | 202 | 20.9 | 27.4 | 0.00 | 0.00 | 0.00 | 64 | 1027.2 |
| 20260508053005 | 17 | 247 | 24.1 | 33.8 | 0.00 | 0.00 | 0.00 | 65 | 1027.2 |
| 20260508051504 | 17 | 247 | 24.1 | 33.8 | 0.00 | 0.00 | 0.00 | 65 | 1027.2 |
| 20260508050004 | 18 | 247 | 20.9 | 32.2 | 0.00 | 0.00 | 0.00 | 62 | 1027.3 |
| 20260508044505 | 18 | 247 | 20.9 | 32.2 | 0.00 | 0.00 | 0.00 | 62 | 1027.3 |